Flight Number: EUR3058 Duration: 11:00
Departure: Paris Charles-de-Gaulle (LFPG) at 08:00 Distance: 4964 Nm
Arrival: Mexico City Int'l Airport (MMMX) at 19:00 Equipment: A340

Weather Information
Paris-Aeroport Charles De Gaulle, France (LFPG) 49-01N 002-32E 109M Aug 19, 2018 - 05:00 AM EDT / 2018.08.19 0900 UTC
Wind: from the WSW (240 degrees) at 8 MPH (7 KT) (direction variable):0
Visibility: greater than 7 mile(s):0
Sky conditions: mostly clear Temperature: 69 F (21 C) Dew Point: 55 F (13 C) Relative Humidity: 60% Pressure (altimeter): 30.21 in. Hg (1023 hPa)
ob: LFPG 190900Z 24007KT 200V290 9999 FEW026 21/13 Q1023 NOSIG cycle: 9
Sunrise: 04:52 Sunset: 18:54 (UTC)

Mexico City / Licenci, Mexico (MMMX) 19-26N 099-06W Aug 19, 2018 - 04:48 AM EDT / 2018.08.19 0848 UTC
Wind: Calm:0
Visibility: 10 mile(s):0
Sky conditions: overcast Temperature: 57 F (14 C) Dew Point: 51 F (11 C) Relative Humidity: 82% Pressure (altimeter): 30.34 in. Hg (1027 hPa) Pressure tendency: 0.01 inches (0.2 hPa) lower than three hours ago
ob: MMMX 190848Z 00000KT 10SM SCT020 OVC080 14/11 A3034 NOSIG RMK SLP122 57002 959 8/57/ HZY cycle: 9
Sunrise: 12:20 Sunset: 00:58 (UTC)

TAF:2018/08/19 06:27 TAF MMMX 190424Z 1906/2012 04009KT P6SM SCT020 BKN080 TX25/1921Z TN14/1912Z FM191800 04014KT P6SM SCT020 BKN080 BKN250 PROB40 1922/2002 5SM -RA BKN020CB FM200600 34006KT P6SM SCT020 BKN080

This route has never been flown.

Route map